Time;durP1;ratioP1;P1;durP2;ratioP2;P2;SDS_P1;SDS_P2;PMS_P1;PMS_P2;Temp;Humidity;BMP_temperature;BMP_pressure;BME280_temperature;BME280_humidity;BME280_pressure;Samples;Min_cycle;Max_cycle;Signal;HPM_P1;HPM_P2
2024/03/19 00:01:16;;;;;;;4.97;1.20;;;6.50;91.30;;;;;;5015858;28;20156;-69
2024/03/19 00:03:42;;;;;;;;;;;6.50;91.70;;;;;;5014895;28;20052;-69
2024/03/19 00:06:07;;;;;;;2.92;0.90;;;6.50;91.10;;;;;;5013273;28;20352;-69
2024/03/19 00:08:32;;;;;;;;;;;6.50;91.10;;;;;;5017438;28;20028;-69
2024/03/19 00:10:58;;;;;;;3.55;1.20;;;6.50;90.90;;;;;;5018295;28;19920;-69
2024/03/19 00:13:23;;;;;;;;;;;6.60;90.90;;;;;;5019709;28;20052;-69
2024/03/19 00:15:51;;;;;;;2.38;1.00;;;6.60;90.50;;;;;;5013605;28;19913;-69
2024/03/19 00:18:17;;;;;;;1.65;0.75;;;6.60;90.70;;;;;;5015387;28;20045;-69
2024/03/19 00:20:42;;;;;;;2.58;1.38;;;6.60;90.90;;;;;;5013446;28;20069;-69
2024/03/19 00:23:08;;;;;;;;;;;6.60;90.90;;;;;;5015617;28;20811;-69
2024/03/19 00:25:33;;;;;;;2.67;1.08;;;6.60;90.80;;;;;;5013883;28;19964;-69
2024/03/19 00:27:59;;;;;;;;;;;6.60;90.80;;;;;;5012433;28;20442;-69
2024/03/19 00:30:25;;;;;;;2.10;1.17;;;6.60;90.70;;;;;;5014389;28;19956;-69
2024/03/19 00:32:50;;;;;;;3.78;1.50;;;6.60;90.80;;;;;;5022198;28;20029;-69
2024/03/19 00:35:16;;;;;;;;;;;6.50;90.80;;;;;;5015849;28;20080;-69
2024/03/19 00:37:42;;;;;;;1.90;0.88;;;6.50;91.10;;;;;;5008834;28;19917;-69
2024/03/19 00:40:10;;;;;;;;;;;6.40;91.10;;;;;;5018239;28;20992;-69
2024/03/19 00:42:43;;;;;;;3.80;1.95;;;6.40;91.20;;;;;;5012497;28;20294;-69
2024/03/19 00:45:09;;;;;;;2.92;1.40;;;6.40;91.40;;;;;;5013244;28;20034;-69
2024/03/19 00:47:35;;;;;;;;;;;6.40;91.40;;;;;;5017787;28;20057;-69
2024/03/19 00:50:01;;;;;;;3.78;1.48;;;6.40;91.50;;;;;;5018703;28;19994;-69
2024/03/19 00:52:27;;;;;;;;;;;6.40;91.90;;;;;;5015361;28;20030;-69
2024/03/19 00:54:52;;;;;;;4.22;1.38;;;6.50;91.80;;;;;;5016147;28;19909;-69
2024/03/19 00:57:18;;;;;;;;;;;6.40;91.60;;;;;;5016674;28;20526;-69
2024/03/19 00:59:43;;;;;;;3.40;2.00;;;6.40;91.80;;;;;;5021993;28;19948;-69
2024/03/19 01:02:10;;;;;;;;;;;6.30;92.00;;;;;;5012947;28;20022;-69
2024/03/19 01:04:36;;;;;;;9.40;2.30;;;6.30;91.90;;;;;;5016485;28;19951;-69
2024/03/19 01:07:01;;;;;;;;;;;6.30;92.00;;;;;;5014672;28;20041;-69
2024/03/19 01:09:27;;;;;;;4.13;2.30;;;6.30;92.20;;;;;;5019951;28;19924;-69
2024/03/19 01:11:53;;;;;;;;;;;6.30;92.20;;;;;;5023426;28;20042;-69
2024/03/19 01:14:18;;;;;;;4.72;2.13;;;6.20;92.40;;;;;;5017171;28;19913;-69
2024/03/19 01:16:44;;;;;;;;;;;6.20;92.70;;;;;;5014755;28;20026;-69
2024/03/19 01:19:09;;;;;;;3.08;1.45;;;6.20;92.60;;;;;;5014836;28;19913;-69
2024/03/19 01:21:35;;;;;;;;;;;6.20;92.80;;;;;;5013511;28;20144;-69
2024/03/19 01:24:01;;;;;;;3.75;1.90;;;6.10;92.90;;;;;;5021959;28;19909;-69
2024/03/19 01:26:27;;;;;;;;;;;6.10;93.00;;;;;;5017157;28;20134;-69
2024/03/19 01:28:52;;;;;;;4.80;1.70;;;6.10;93.10;;;;;;5014478;28;20379;-69
2024/03/19 01:31:17;;;;;;;;;;;6.00;93.20;;;;;;5016808;28;20029;-69
2024/03/19 01:33:43;;;;;;;2.75;1.85;;;6.00;93.60;;;;;;5018674;28;20013;-69
2024/03/19 01:36:08;;;;;;;;;;;5.90;93.70;;;;;;5017568;28;20076;-69
2024/03/19 01:38:35;;;;;;;5.80;1.75;;;5.90;93.80;;;;;;5015357;28;20511;-69
2024/03/19 01:41:01;;;;;;;2.58;1.48;;;5.90;93.90;;;;;;5011416;28;20045;-69
2024/03/19 01:43:26;;;;;;;;;;;5.90;94.30;;;;;;5020037;28;20026;-69
2024/03/19 01:46:07;;;;;;;1.80;1.25;;;5.90;94.40;;;;;;5011745;28;19920;-69
2024/03/19 01:48:38;;;;;;;4.22;2.00;;;5.80;94.50;;;;;;5022874;28;20032;-69
2024/03/19 01:51:04;;;;;;;5.25;2.33;;;5.80;94.70;;;;;;5016780;28;20026;-69
2024/03/19 01:53:30;;;;;;;;;;;5.80;94.80;;;;;;5013636;28;20036;-69
2024/03/19 01:55:56;;;;;;;4.32;1.73;;;5.90;94.90;;;;;;5017989;28;19913;-69
2024/03/19 01:58:23;;;;;;;2.88;1.60;;;5.80;95.00;;;;;;5016518;28;20129;-69
2024/03/19 02:00:49;;;;;;;5.13;3.45;;;5.80;95.00;;;;;;5016161;28;20037;-69
2024/03/19 02:03:17;;;;;;;;;;;5.70;95.20;;;;;;5017284;28;20053;-69
2024/03/19 02:05:45;;;;;;;3.38;2.00;;;5.70;95.50;;;;;;5017639;28;20429;-69
2024/03/19 02:08:11;;;;;;;3.67;1.98;;;5.70;95.80;;;;;;5017612;28;20472;-69
2024/03/19 02:10:38;;;;;;;3.42;1.60;;;5.70;95.60;;;;;;5011829;28;20578;-69
2024/03/19 02:13:03;;;;;;;;;;;5.60;95.90;;;;;;5012320;28;20096;-69
2024/03/19 02:15:29;;;;;;;3.05;1.63;;;5.70;96.10;;;;;;5014543;28;19961;-69
2024/03/19 02:17:54;;;;;;;3.60;1.73;;;5.70;95.90;;;;;;5016231;28;20026;-69
2024/03/19 02:20:20;;;;;;;;;;;5.70;95.80;;;;;;5015808;28;20037;-69
2024/03/19 02:22:49;;;;;;;4.13;1.80;;;5.70;95.80;;;;;;5017812;28;19944;-69
2024/03/19 02:25:16;;;;;;;4.75;1.63;;;5.60;96.00;;;;;;5015145;28;20125;-69
2024/03/19 02:27:43;;;;;;;3.15;1.80;;;5.60;96.20;;;;;;5017399;28;20043;-69
2024/03/19 02:30:09;;;;;;;4.68;1.92;;;5.60;96.60;;;;;;5011912;28;20033;-69
2024/03/19 02:32:35;;;;;;;2.42;1.75;;;5.50;96.30;;;;;;5018461;28;20034;-69
2024/03/19 02:35:00;;;;;;;;;;;5.50;96.60;;;;;;5022712;28;20101;-69
2024/03/19 02:37:26;;;;;;;10.50;4.05;;;5.50;96.60;;;;;;5015641;28;20360;-69
2024/03/19 02:39:52;;;;;;;;;;;5.40;96.80;;;;;;5021102;28;20397;-69
2024/03/19 02:42:19;;;;;;;7.57;5.03;;;5.40;96.90;;;;;;5014336;28;20339;-69
2024/03/19 02:44:45;;;;;;;6.50;3.80;;;5.40;97.10;;;;;;5018505;28;20038;-69
2024/03/19 02:47:10;;;;;;;;;;;5.40;97.00;;;;;;5012335;28;20038;-69
2024/03/19 02:49:36;;;;;;;3.83;2.20;;;5.30;97.30;;;;;;5015654;28;19949;-69
2024/03/19 02:52:01;;;;;;;6.07;2.78;;;5.30;97.50;;;;;;5014809;28;20484;-69
2024/03/19 02:54:27;;;;;;;3.92;2.15;;;5.30;97.50;;;;;;5014784;28;20120;-69
2024/03/19 02:56:52;;;;;;;;;;;5.30;97.50;;;;;;5013552;28;20022;-69
2024/03/19 02:59:18;;;;;;;4.15;1.77;;;5.30;97.60;;;;;;5014029;28;19920;-69
2024/03/19 03:01:43;;;;;;;;;;;5.30;97.80;;;;;;5015293;28;20034;-69
2024/03/19 03:04:09;;;;;;;6.43;2.47;;;5.20;97.90;;;;;;5013430;28;19917;-69
2024/03/19 03:06:34;;;;;;;;;;;5.10;98.20;;;;;;5015195;28;20038;-69
2024/03/19 03:09:00;;;;;;;3.25;2.17;;;5.10;98.20;;;;;;5015315;28;19915;-69
2024/03/19 03:11:25;;;;;;;;;;;5.10;98.40;;;;;;5023569;28;20035;-69
2024/03/19 03:13:51;;;;;;;2.53;1.75;;;5.10;98.40;;;;;;5010525;28;19913;-69
2024/03/19 03:16:16;;;;;;;;;;;5.10;98.20;;;;;;5019080;28;20026;-69
2024/03/19 03:18:42;;;;;;;7.25;2.08;;;5.10;98.40;;;;;;5018313;28;19944;-69
2024/03/19 03:21:07;;;;;;;;;;;5.20;98.50;;;;;;5015522;28;20192;-69
2024/03/19 03:23:34;;;;;;;4.95;2.78;;;5.20;98.20;;;;;;5011688;28;19963;-69
2024/03/19 03:26:00;;;;;;;4.13;2.35;;;5.10;98.30;;;;;;5009887;28;20507;-69
2024/03/19 03:28:25;;;;;;;;;;;5.10;98.50;;;;;;5012925;28;20030;-69
2024/03/19 03:30:51;;;;;;;4.10;2.33;;;5.10;98.50;;;;;;5013791;28;19917;-69
2024/03/19 03:33:17;;;;;;;4.10;2.40;;;5.10;98.60;;;;;;5014650;28;20168;-69
2024/03/19 03:35:43;;;;;;;;;;;5.10;98.70;;;;;;5028173;28;20030;-69
2024/03/19 03:38:09;;;;;;;5.68;2.40;;;5.10;98.70;;;;;;5017624;28;20019;-69
2024/03/19 03:40:35;;;;;;;;;;;5.10;98.90;;;;;;5012031;28;20169;-69
2024/03/19 03:43:00;;;;;;;2.90;2.13;;;5.00;98.70;;;;;;5017104;28;19909;-69
2024/03/19 03:45:26;;;;;;;;;;;5.10;99.00;;;;;;5017695;28;20037;-69
2024/03/19 03:47:51;;;;;;;4.75;2.35;;;5.00;98.80;;;;;;5011611;28;20330;-69
2024/03/19 03:50:17;;;;;;;;;;;5.00;98.90;;;;;;5013336;28;20512;-69
2024/03/19 03:52:43;;;;;;;5.13;1.90;;;5.00;99.00;;;;;;5015833;28;20713;-69
2024/03/19 03:55:09;;;;;;;;;;;5.00;99.10;;;;;;5009605;28;20042;-69
2024/03/19 03:57:35;;;;;;;3.78;2.05;;;5.00;99.30;;;;;;5013280;28;19916;-69
2024/03/19 04:00:08;;;;;;;5.40;2.60;;;4.90;99.20;;;;;;5016248;28;20029;-69
2024/03/19 04:02:52;;;;;;;4.47;2.60;;;5.00;99.30;;;;;;5013069;28;20026;-69
2024/03/19 04:05:18;;;;;;;3.63;2.08;;;4.90;99.40;;;;;;5011725;28;20121;-69
2024/03/19 04:07:44;;;;;;;;;;;4.90;99.50;;;;;;5018023;28;20165;-69
2024/03/19 04:10:14;;;;;;;2.25;1.73;;;4.90;99.30;;;;;;5011824;28;19949;-69
2024/03/19 04:12:40;;;;;;;3.03;2.38;;;4.80;99.50;;;;;;5013942;28;20384;-69
2024/03/19 04:15:08;;;;;;;7.00;2.55;;;4.80;99.60;;;;;;5019233;28;20038;-69
2024/03/19 04:17:34;;;;;;;4.30;2.17;;;4.80;99.90;;;;;;5015861;28;20030;-69
2024/03/19 04:22:30;;;;;;;8.15;2.47;;;4.80;99.70;;;;;;5009978;28;20053;-69
2024/03/19 04:24:55;;;;;;;;;;;4.80;99.70;;;;;;5011583;28;20017;-69
2024/03/19 04:27:20;;;;;;;3.20;1.95;;;4.80;99.70;;;;;;5018467;28;20000;-69
2024/03/19 04:29:47;;;;;;;;;;;4.80;99.80;;;;;;5011084;28;20113;-69
2024/03/19 04:32:12;;;;;;;2.85;1.85;;;4.80;99.90;;;;;;5016869;28;19914;-69
2024/03/19 04:34:38;;;;;;;;;;;4.80;99.90;;;;;;5016947;28;20034;-69
2024/03/19 04:37:03;;;;;;;3.30;2.65;;;4.80;99.90;;;;;;5015314;28;19913;-69
2024/03/19 04:39:29;;;;;;;;;;;4.80;99.90;;;;;;5012180;28;20163;-70
2024/03/19 04:41:55;;;;;;;5.63;2.03;;;4.70;99.90;;;;;;5015968;28;19960;-70
2024/03/19 04:44:20;;;;;;;3.45;2.20;;;4.80;99.90;;;;;;5013474;28;20472;-70
2024/03/19 04:46:46;;;;;;;;;;;4.80;99.90;;;;;;5015787;28;20443;-70
2024/03/19 04:49:11;;;;;;;5.47;2.35;;;4.70;99.90;;;;;;5016596;28;19956;-70
2024/03/19 04:51:38;;;;;;;;;;;4.70;99.90;;;;;;5021691;28;20076;-70
2024/03/19 04:54:03;;;;;;;6.50;2.35;;;4.80;99.90;;;;;;5010170;28;19971;-70
2024/03/19 04:56:28;;;;;;;;;;;4.70;99.90;;;;;;5014838;28;20018;-70
2024/03/19 04:58:54;;;;;;;5.72;2.42;;;4.70;99.90;;;;;;5015949;28;19914;-70
2024/03/19 05:01:19;;;;;;;;;;;4.70;99.90;;;;;;5017200;28;20496;-69
2024/03/19 05:03:45;;;;;;;6.65;3.30;;;4.70;99.90;;;;;;5011585;28;19905;-69
2024/03/19 05:06:11;;;;;;;;;;;4.70;99.90;;;;;;5012511;28;20025;-70
2024/03/19 05:08:37;;;;;;;5.93;3.08;;;4.70;99.90;;;;;;5009876;28;20300;-70
2024/03/19 05:11:03;;;;;;;5.70;2.33;;;4.80;99.90;;;;;;5012149;28;20400;-70
2024/03/19 05:13:29;;;;;;;;;;;4.70;99.80;;;;;;5012414;28;20030;-70
2024/03/19 05:15:55;;;;;;;9.13;3.33;;;4.80;99.90;;;;;;5010867;28;19941;-71
2024/03/19 05:18:21;;;;;;;;;;;4.80;99.80;;;;;;5017886;28;20076;-70
2024/03/19 05:20:47;;;;;;;3.75;2.25;;;4.80;99.90;;;;;;5015022;28;19917;-69
2024/03/19 05:23:12;;;;;;;;;;;4.80;99.70;;;;;;5017761;28;20125;-71
2024/03/19 05:25:38;;;;;;;2.92;2.63;;;4.80;99.90;;;;;;5009507;28;19966;-68
2024/03/19 05:28:03;;;;;;;;;;;4.70;99.80;;;;;;5010637;28;20018;-68
2024/03/19 05:30:31;;;;;;;4.10;2.67;;;4.80;99.90;;;;;;5012017;28;19910;-68
2024/03/19 05:32:57;;;;;;;6.53;3.00;;;4.70;99.90;;;;;;5010562;28;20022;-68
2024/03/19 05:35:23;;;;;;;;;;;4.70;99.80;;;;;;5011491;28;20108;-68
2024/03/19 05:37:49;;;;;;;6.25;3.05;;;4.80;99.90;;;;;;5017311;28;19909;-71
2024/03/19 05:40:14;;;;;;;;;;;4.70;99.90;;;;;;5021236;28;20033;-68
2024/03/19 05:42:40;;;;;;;3.00;2.53;;;4.70;99.90;;;;;;5022705;28;20420;-68
2024/03/19 05:45:08;;;;;;;7.70;2.67;;;4.70;99.90;;;;;;5017547;28;20030;-68
2024/03/19 05:47:34;;;;;;;4.03;3.13;;;4.60;99.90;;;;;;5017235;28;20048;-70
2024/03/19 05:50:00;;;;;;;4.85;2.50;;;4.60;99.90;;;;;;5012941;28;20022;-69
2024/03/19 05:52:26;;;;;;;6.03;2.47;;;4.60;99.90;;;;;;5019426;28;20097;-70
2024/03/19 05:54:51;;;;;;;;;;;4.60;99.90;;;;;;5018140;28;20050;-69
2024/03/19 05:57:17;;;;;;;6.50;3.72;;;4.60;99.90;;;;;;5012198;28;19910;-70
2024/03/19 05:59:43;;;;;;;;;;;4.60;99.90;;;;;;5013297;28;20127;-70
2024/03/19 06:02:09;;;;;;;6.22;3.35;;;4.60;99.90;;;;;;5012964;28;20047;-71
2024/03/19 06:04:34;;;;;;;;;;;4.60;99.90;;;;;;5015221;28;20030;-71
2024/03/19 06:07:00;;;;;;;10.02;3.40;;;4.70;99.90;;;;;;5015120;28;20359;-72
2024/03/19 06:09:25;;;;;;;;;;;4.70;99.90;;;;;;5013917;28;20407;-69
2024/03/19 06:11:51;;;;;;;4.75;3.30;;;4.70;99.90;;;;;;5021447;28;20294;-69
2024/03/19 06:14:16;;;;;;;;;;;4.70;99.90;;;;;;5013453;28;20430;-69
2024/03/19 06:16:42;;;;;;;6.88;3.22;;;4.70;99.90;;;;;;5012184;28;20018;-68
2024/03/19 06:19:07;;;;;;;;;;;4.80;99.90;;;;;;5021470;28;20503;-69
2024/03/19 06:21:33;;;;;;;5.25;3.20;;;4.80;99.90;;;;;;5016009;28;20013;-68
2024/03/19 06:24:01;;;;;;;;;;;4.80;99.90;;;;;;5018863;28;20065;-68
2024/03/19 06:26:27;;;;;;;8.68;2.95;;;4.90;99.90;;;;;;5012082;28;19917;-69
2024/03/19 06:28:52;;;;;;;;;;;5.00;99.90;;;;;;5011949;28;20045;-70
2024/03/19 06:31:17;;;;;;;4.53;2.58;;;5.10;99.90;;;;;;5017084;28;19909;-68
2024/03/19 06:33:43;;;;;;;;;;;5.10;99.70;;;;;;5014293;28;20021;-68
2024/03/19 06:36:10;;;;;;;8.82;4.03;;;5.20;99.70;;;;;;5016587;28;19932;-68
2024/03/19 06:38:35;;;;;;;6.95;3.92;;;5.30;99.70;;;;;;5019838;28;20069;-70
2024/03/19 06:41:01;;;;;;;;;;;5.40;99.50;;;;;;5022310;28;20025;-71
2024/03/19 06:43:28;;;;;;;4.47;3.83;;;5.50;99.20;;;;;;5014712;28;20191;-69
2024/03/19 06:45:53;;;;;;;6.63;3.65;;;5.60;99.30;;;;;;5013898;28;20105;-69
2024/03/19 06:48:19;;;;;;;;;;;5.60;99.10;;;;;;5013614;28;20105;-69
2024/03/19 06:50:45;;;;;;;8.40;4.30;;;5.70;99.00;;;;;;5015068;28;19975;-69
2024/03/19 06:53:11;;;;;;;8.77;3.00;;;5.70;99.10;;;;;;5015964;28;20661;-69
2024/03/19 06:55:36;;;;;;;;;;;5.70;98.70;;;;;;5017445;28;20066;-69
2024/03/19 06:58:02;;;;;;;4.50;3.50;;;5.70;98.90;;;;;;5014180;28;19992;-69
2024/03/19 07:00:27;;;;;;;8.43;3.35;;;5.70;99.00;;;;;;5016218;28;21047;-69
2024/03/19 07:02:55;;;;;;;;;;;5.70;98.50;;;;;;5015833;28;20026;-69
2024/03/19 07:05:22;;;;;;;5.03;3.58;;;5.70;98.50;;;;;;5014144;28;19905;-69
2024/03/19 07:07:47;;;;;;;6.18;3.42;;;5.80;98.90;;;;;;5013545;28;20033;-69
2024/03/19 07:10:13;;;;;;;;;;;5.80;98.80;;;;;;5013211;28;20447;-69
2024/03/19 07:12:42;;;;;;;9.48;3.97;;;5.80;98.80;;;;;;5014732;28;19905;-69
2024/03/19 07:15:14;;;;;;;7.80;4.35;;;5.90;98.90;;;;;;5016148;28;20033;-69
2024/03/19 07:17:41;;;;;;;7.72;4.30;;;5.90;98.40;;;;;;5010604;28;20018;-69
2024/03/19 07:20:09;;;;;;;5.80;3.88;;;5.80;98.40;;;;;;5017589;28;20043;-69
2024/03/19 07:22:36;;;;;;;8.40;4.47;;;5.80;98.60;;;;;;5018292;28;20037;-69
2024/03/19 07:25:02;;;;;;;8.98;4.40;;;5.80;98.40;;;;;;5015894;28;20189;-69
2024/03/19 07:27:27;;;;;;;;;;;5.80;98.20;;;;;;5014656;28;20030;-69
2024/03/19 07:29:53;;;;;;;5.97;3.75;;;5.80;98.50;;;;;;5013699;28;20383;-68
2024/03/19 07:32:18;;;;;;;;;;;5.90;98.70;;;;;;5014358;28;20029;-69
2024/03/19 07:34:43;;;;;;;5.60;4.35;;;6.00;98.80;;;;;;5014059;28;20004;-69
2024/03/19 07:37:10;;;;;;;;;;;6.10;98.70;;;;;;5015188;28;20048;-68
2024/03/19 07:39:35;;;;;;;5.82;3.72;;;6.10;98.20;;;;;;5013705;28;19953;-68
2024/03/19 07:42:02;;;;;;;;;;;6.20;98.20;;;;;;5022612;28;20143;-68
2024/03/19 07:44:29;;;;;;;6.68;4.65;;;6.20;98.10;;;;;;5018592;28;19912;-68
2024/03/19 07:46:54;;;;;;;8.05;5.43;;;6.40;98.30;;;;;;5013150;28;20561;-69
2024/03/19 07:49:19;;;;;;;;;;;6.60;98.20;;;;;;5013797;28;20030;-69
2024/03/19 07:51:45;;;;;;;7.93;5.18;;;6.60;97.50;;;;;;5014598;28;20435;-68
2024/03/19 07:54:10;;;;;;;;;;;6.70;97.40;;;;;;5016152;28;20030;-69
2024/03/19 07:56:40;;;;;;;9.35;6.13;;;6.70;97.30;;;;;;5015958;28;19909;-68
2024/03/19 07:59:06;;;;;;;9.98;4.70;;;6.80;97.20;;;;;;5012988;28;20068;-69
2024/03/19 08:01:31;;;;;;;;;;;6.80;97.30;;;;;;5011575;28;20029;-68
2024/03/19 08:03:56;;;;;;;11.27;5.70;;;6.90;97.40;;;;;;5009409;28;19905;-69
2024/03/19 08:06:22;;;;;;;;;;;7.00;96.60;;;;;;5013993;28;20654;-69
2024/03/19 08:08:47;;;;;;;8.80;5.05;;;7.00;96.60;;;;;;5012461;28;19910;-69
2024/03/19 08:11:14;;;;;;;;;;;7.00;96.60;;;;;;5017106;28;20025;-68
2024/03/19 08:13:39;;;;;;;6.32;4.93;;;7.00;96.90;;;;;;5016443;28;19912;-69
2024/03/19 08:16:06;;;;;;;;;;;7.10;96.50;;;;;;5012737;28;20026;-68
2024/03/19 08:18:31;;;;;;;9.00;5.25;;;7.10;96.40;;;;;;5017586;28;19909;-69
2024/03/19 08:20:57;;;;;;;;;;;7.20;96.40;;;;;;5012305;28;20114;-69
2024/03/19 08:23:23;;;;;;;14.45;8.10;;;7.20;96.50;;;;;;5015346;28;19913;-68
2024/03/19 08:25:48;;;;;;;;;;;7.40;96.60;;;;;;5014341;28;20029;-69
2024/03/19 08:28:14;;;;;;;9.75;6.03;;;7.60;96.50;;;;;;5016196;28;19913;-69
2024/03/19 08:30:39;;;;;;;;;;;7.70;96.00;;;;;;5012630;28;20060;-69
2024/03/19 08:33:05;;;;;;;8.43;5.72;;;8.00;96.00;;;;;;5014013;28;19969;-69
2024/03/19 08:35:30;;;;;;;9.25;4.90;;;8.20;95.90;;;;;;5010125;28;20026;-69
2024/03/19 08:37:56;;;;;;;;;;;8.40;95.60;;;;;;5011090;28;20038;-69
2024/03/19 08:40:21;;;;;;;7.97;5.97;;;8.30;95.80;;;;;;5013959;28;19910;-68
2024/03/19 08:42:47;;;;;;;;;;;8.30;94.70;;;;;;5019343;28;20072;-68
2024/03/19 08:45:12;;;;;;;14.90;5.82;;;8.20;94.80;;;;;;5014490;28;19908;-68
2024/03/19 08:47:41;;;;;;;;;;;8.20;95.20;;;;;;5017387;28;20120;-69
2024/03/19 08:50:08;;;;;;;5.82;4.70;;;8.20;95.20;;;;;;5012255;28;20009;-68
2024/03/19 08:52:34;;;;;;;7.72;4.65;;;8.30;95.40;;;;;;5012891;28;20488;-68
2024/03/19 08:55:01;;;;;;;13.43;7.03;;;8.30;95.30;;;;;;5011789;28;20049;-69
2024/03/19 08:57:27;;;;;;;11.27;5.60;;;8.30;95.40;;;;;;5015468;28;20030;-68
2024/03/19 08:59:52;;;;;;;;;;;8.30;95.10;;;;;;5014088;28;20030;-68
2024/03/19 09:02:18;;;;;;;6.47;4.07;;;8.30;95.10;;;;;;5010637;28;20016;-68
2024/03/19 09:04:44;;;;;;;;;;;8.30;95.30;;;;;;5014863;28;20117;-68
2024/03/19 09:07:11;;;;;;;7.43;4.28;;;8.40;95.00;;;;;;5015935;28;19914;-68
2024/03/19 09:09:36;;;;;;;6.85;4.50;;;8.50;95.10;;;;;;5010166;28;20033;-68
2024/03/19 09:12:02;;;;;;;;;;;8.60;94.90;;;;;;5015072;28;20413;-68
2024/03/19 09:14:27;;;;;;;9.13;4.57;;;8.70;95.10;;;;;;5018766;28;19913;-68
2024/03/19 09:16:53;;;;;;;;;;;8.90;95.30;;;;;;5017364;28;20440;-68
2024/03/19 09:19:18;;;;;;;6.30;4.57;;;9.10;94.70;;;;;;5015843;28;19905;-68
2024/03/19 09:21:44;;;;;;;;;;;9.30;94.80;;;;;;5013493;28;20033;-68
2024/03/19 09:24:09;;;;;;;5.28;4.47;;;9.40;94.30;;;;;;5015784;28;19909;-68
2024/03/19 09:26:34;;;;;;;;;;;9.40;94.20;;;;;;5017840;28;20037;-68
2024/03/19 09:29:00;;;;;;;5.30;3.75;;;9.50;94.30;;;;;;5015620;28;20055;-68
2024/03/19 09:31:26;;;;;;;;;;;9.50;93.80;;;;;;5020377;28;20473;-68
2024/03/19 09:33:52;;;;;;;5.35;4.03;;;9.50;94.30;;;;;;5014664;28;19928;-68
2024/03/19 09:36:19;;;;;;;;;;;9.50;93.70;;;;;;5016918;28;20990;-68
2024/03/19 09:38:48;;;;;;;9.38;5.20;;;9.50;93.80;;;;;;5015556;28;19912;-68
2024/03/19 09:41:15;;;;;;;6.82;4.97;;;9.50;93.80;;;;;;5018718;28;20598;-68
2024/03/19 09:43:42;;;;;;;5.85;4.82;;;9.60;94.10;;;;;;5013022;28;20029;-68
2024/03/19 09:46:07;;;;;;;6.07;4.32;;;9.70;94.30;;;;;;5014396;28;20029;-68
2024/03/19 09:48:33;;;;;;;;;;;9.80;93.60;;;;;;5014606;28;20025;-68
2024/03/19 09:51:00;;;;;;;6.57;5.25;;;9.90;93.70;;;;;;5016329;28;20406;-68
2024/03/19 09:53:29;;;;;;;11.50;6.32;;;9.90;93.40;;;;;;5019504;28;20051;-68
2024/03/19 09:55:55;;;;;;;12.80;5.68;;;9.90;93.80;;;;;;5012972;28;20081;-68
2024/03/19 09:58:24;;;;;;;8.25;4.82;;;9.90;93.90;;;;;;5015480;28;20484;-68
2024/03/19 10:00:53;;;;;;;8.73;5.38;;;10.00;93.90;;;;;;5015199;28;20036;-68
2024/03/19 10:03:19;;;;;;;8.55;5.65;;;10.00;93.50;;;;;;5017395;28;20018;-68
2024/03/19 10:05:45;;;;;;;;;;;10.10;93.20;;;;;;5015275;28;20022;-68
2024/03/19 10:08:15;;;;;;;10.38;5.25;;;10.10;93.70;;;;;;5013318;28;19909;-68
2024/03/19 10:10:41;;;;;;;11.90;5.28;;;10.20;93.50;;;;;;5016382;28;20501;-68
2024/03/19 10:13:12;;;;;;;6.90;5.45;;;10.30;93.30;;;;;;5014642;28;20118;-68
2024/03/19 10:15:37;;;;;;;7.53;5.07;;;10.40;93.10;;;;;;5016152;28;20025;-68
2024/03/19 10:18:05;;;;;;;;;;;10.50;93.10;;;;;;5012278;28;20630;-68
2024/03/19 10:20:32;;;;;;;6.88;5.10;;;10.60;93.00;;;;;;5031518;23;19910;-72
2024/03/19 10:23:00;;;;;;;6.43;4.70;;;10.70;93.00;;;;;;5017933;28;20459;-72
2024/03/19 10:25:25;;;;;;;10.18;5.80;;;10.80;92.80;;;;;;5012570;28;20030;-72
2024/03/19 10:27:51;;;;;;;;;;;10.90;92.10;;;;;;5020744;28;20479;-73
2024/03/19 10:30:18;;;;;;;9.43;5.80;;;10.90;92.40;;;;;;5017024;28;19905;-73
2024/03/19 10:32:45;;;;;;;8.98;5.75;;;10.90;92.70;;;;;;5016082;28;20068;-73
2024/03/19 10:35:19;;;;;;;9.95;5.70;;;11.10;92.80;;;;;;5012912;28;20060;-73
2024/03/19 10:37:46;;;;;;;11.32;6.05;;;11.10;92.70;;;;;;5016363;28;20028;-73
2024/03/19 10:40:14;;;;;;;7.70;5.53;;;11.10;92.80;;;;;;5017294;28;20101;-73
2024/03/19 10:42:41;;;;;;;8.57;5.60;;;11.20;92.50;;;;;;5016510;28;20033;-73
2024/03/19 10:45:17;;;;;;;6.57;4.85;;;11.30;92.70;;;;;;5017959;28;20025;-73
2024/03/19 10:47:44;;;;;;;7.95;6.13;;;11.40;92.70;;;;;;5017848;28;20036;-73
2024/03/19 10:50:13;;;;;;;11.30;5.28;;;11.50;92.30;;;;;;5013874;28;20034;-73
2024/03/19 10:52:41;;;;;;;10.63;5.65;;;11.40;92.10;;;;;;5014394;28;20060;-73
2024/03/19 10:55:11;;;;;;;9.65;7.30;;;11.40;92.20;;;;;;5018361;28;20037;-73
2024/03/19 10:57:39;;;;;;;11.18;6.80;;;11.30;91.90;;;;;;5014951;28;20108;-73
2024/03/19 11:00:26;;;;;;;8.43;5.85;;;11.40;92.60;;;;;;5015218;28;20523;-73
2024/03/19 11:02:56;;;;;;;7.97;5.63;;;11.50;93.00;;;;;;5011599;28;20060;-73
2024/03/19 11:05:22;;;;;;;9.13;6.35;;;11.60;92.60;;;;;;5013070;28;20029;-74
2024/03/19 11:07:48;;;;;;;;;;;11.80;92.60;;;;;;5014109;28;20037;-74
2024/03/19 11:10:37;;;;;;;8.93;5.75;;;12.00;92.50;;;;;;5018046;28;19951;-73
2024/03/19 11:13:09;;;;;;;8.65;5.85;;;12.10;92.10;;;;;;5012841;28;20033;-73
2024/03/19 11:15:36;;;;;;;9.68;6.28;;;12.20;92.30;;;;;;5019337;28;20029;-74
2024/03/19 11:18:08;;;;;;;7.68;6.30;;;12.50;92.60;;;;;;5010824;28;20444;-74
2024/03/19 11:21:03;;;;;;;8.80;5.70;;;12.60;91.80;;;;;;5018442;28;20535;-74
2024/03/19 11:23:30;;;;;;;11.07;6.75;;;12.80;91.30;;;;;;5010129;28;20095;-74
2024/03/19 11:26:01;;;;;;;8.23;6.63;;;12.80;91.40;;;;;;5011522;28;20029;-74
2024/03/19 11:28:30;;;;;;;10.88;6.50;;;12.80;91.00;;;;;;5012402;28;20381;-74
2024/03/19 11:31:05;;;;;;;10.60;8.02;;;12.80;91.90;;;;;;5017441;28;20054;-74
2024/03/19 11:33:36;;;;;;;18.77;8.93;;;12.90;91.50;;;;;;5017054;28;20121;-74
2024/03/19 11:36:03;;;;;;;18.17;9.60;;;12.90;91.40;;;;;;5017938;28;20030;-74
2024/03/19 11:38:30;;;;;;;12.90;7.20;;;12.90;91.40;;;;;;5018917;28;20041;-74
2024/03/19 11:40:55;;;;;;;9.63;7.05;;;13.00;91.60;;;;;;5016537;28;20034;-73
2024/03/19 11:43:21;;;;;;;;;;;13.10;91.70;;;;;;5011431;28;20056;-74
2024/03/19 11:45:48;;;;;;;10.75;7.75;;;13.10;91.70;;;;;;5016855;28;20390;-74
2024/03/19 11:48:19;;;;;;;11.05;6.82;;;13.20;91.50;;;;;;5016970;28;20041;-74
2024/03/19 11:50:58;;;;;;;9.10;6.53;;;13.20;91.80;;;;;;5018148;28;20030;-74
2024/03/19 11:53:25;;;;;;;11.43;8.02;;;13.40;91.70;;;;;;5015266;28;20025;-74
2024/03/19 11:55:53;;;;;;;13.00;9.27;;;13.40;91.30;;;;;;5016854;28;20034;-74
2024/03/19 11:58:18;;;;;;;11.45;8.32;;;13.40;91.50;;;;;;5011752;28;20022;-74
2024/03/19 12:00:44;;;;;;;10.85;7.00;;;13.40;91.30;;;;;;5017407;28;20504;-74
2024/03/19 12:03:17;;;;;;;12.88;7.68;;;13.30;91.10;;;;;;5011952;28;20022;-74
2024/03/19 12:05:47;;;;;;;11.15;7.70;;;13.40;91.40;;;;;;5016156;28;20030;-74
2024/03/19 12:08:14;;;;;;;12.27;8.18;;;13.40;91.20;;;;;;5015343;28;20154;-74
2024/03/19 12:10:42;;;;;;;12.00;7.82;;;13.40;91.30;;;;;;5011621;28;20030;-74
2024/03/19 12:13:11;;;;;;;20.67;8.65;;;13.50;91.50;;;;;;5011986;28;20351;-74
2024/03/19 12:15:37;;;;;;;13.13;7.50;;;13.60;91.10;;;;;;5022648;28;20025;-74
2024/03/19 12:18:06;;;;;;;11.15;7.15;;;13.70;91.30;;;;;;5015799;28;20480;-74
2024/03/19 12:20:33;;;;;;;11.18;7.88;;;13.90;91.00;;;;;;5017871;28;20080;-74
2024/03/19 12:22:59;;;;;;;9.43;6.38;;;14.10;90.90;;;;;;5015485;28;20033;-74
2024/03/19 12:25:27;;;;;;;13.88;7.75;;;14.10;90.80;;;;;;5017319;28;20042;-73
2024/03/19 12:27:52;;;;;;;13.55;8.50;;;14.20;90.10;;;;;;5014623;28;20444;-75
2024/03/19 12:30:22;;;;;;;11.23;7.80;;;14.20;90.10;;;;;;5014100;28;20091;-73
2024/03/19 12:33:13;;;;;;;12.02;7.72;;;14.30;90.30;;;;;;5014645;28;20026;-74
2024/03/19 12:35:39;;;;;;;27.90;17.58;;;14.40;90.20;;;;;;5016959;28;20049;-74
2024/03/19 12:38:11;;;;;;;10.55;7.55;;;14.50;89.10;;;;;;5016134;28;20119;-74
2024/03/19 12:40:36;;;;;;;12.45;8.55;;;14.50;88.80;;;;;;5009364;28;20165;-74
2024/03/19 12:43:03;;;;;;;12.35;9.40;;;14.50;89.30;;;;;;5011175;28;20113;-74
2024/03/19 12:45:28;;;;;;;9.20;7.55;;;14.50;89.40;;;;;;5014470;28;20038;-74
2024/03/19 12:47:54;;;;;;;12.50;6.80;;;14.60;89.00;;;;;;5023487;28;20037;-74
2024/03/19 12:50:19;;;;;;;12.05;7.57;;;14.70;90.00;;;;;;5016505;28;20018;-74
2024/03/19 12:52:45;;;;;;;10.23;7.95;;;15.00;89.60;;;;;;5017802;28;20536;-74
2024/03/19 12:55:12;;;;;;;11.60;7.05;;;15.00;88.70;;;;;;5016254;28;20472;-73
2024/03/19 12:57:39;;;;;;;12.43;7.78;;;15.00;89.90;;;;;;5019617;28;20488;-73
2024/03/19 13:00:08;;;;;;;12.13;7.60;;;15.00;87.60;;;;;;5024210;28;20159;-73
2024/03/19 13:02:34;;;;;;;9.98;7.53;;;14.80;87.90;;;;;;5017390;28;20084;-74
2024/03/19 13:05:00;;;;;;;15.38;8.35;;;14.80;88.20;;;;;;5014353;28;20034;-74
2024/03/19 13:07:25;;;;;;;11.02;7.65;;;15.00;89.20;;;;;;5015598;28;20034;-74
2024/03/19 13:09:51;;;;;;;10.32;7.97;;;15.00;88.40;;;;;;5015954;28;20077;-73
2024/03/19 13:12:16;;;;;;;10.88;8.45;;;15.10;88.10;;;;;;5018397;28;20121;-77
2024/03/19 13:14:42;;;;;;;15.63;8.50;;;15.00;86.90;;;;;;5017585;28;20112;-74
2024/03/19 13:17:07;;;;;;;9.27;6.75;;;15.00;87.40;;;;;;5014143;28;20030;-74